sensor_id;sensor_type;location;lat;lon;timestamp;P1;durP1;ratioP1;P2;durP2;ratioP2
65189;SDS011;51777;53.570;9.984;2023-02-01T00:00:05;17.23;;;2.55;;
65189;SDS011;51777;53.570;9.984;2023-02-01T00:02:31;16.30;;;2.25;;
65189;SDS011;51777;53.570;9.984;2023-02-01T00:04:56;19.33;;;2.83;;
65189;SDS011;51777;53.570;9.984;2023-02-01T00:07:22;19.92;;;3.20;;
65189;SDS011;51777;53.570;9.984;2023-02-01T00:09:47;19.95;;;2.70;;
65189;SDS011;51777;53.570;9.984;2023-02-01T00:12:12;18.48;;;2.83;;
65189;SDS011;51777;53.570;9.984;2023-02-01T00:14:38;21.13;;;3.10;;
65189;SDS011;51777;53.570;9.984;2023-02-01T00:17:05;18.13;;;2.67;;
65189;SDS011;51777;53.570;9.984;2023-02-01T00:19:31;11.90;;;2.42;;
65189;SDS011;51777;53.570;9.984;2023-02-01T00:21:58;18.67;;;3.63;;
65189;SDS011;51777;53.570;9.984;2023-02-01T00:24:23;18.95;;;2.50;;
65189;SDS011;51777;53.570;9.984;2023-02-01T00:26:49;24.08;;;3.15;;
65189;SDS011;51777;53.570;9.984;2023-02-01T00:29:15;20.42;;;2.65;;
65189;SDS011;51777;53.570;9.984;2023-02-01T00:31:42;15.02;;;2.40;;
65189;SDS011;51777;53.570;9.984;2023-02-01T00:34:13;25.10;;;3.35;;
65189;SDS011;51777;53.570;9.984;2023-02-01T00:36:40;20.45;;;2.92;;
65189;SDS011;51777;53.570;9.984;2023-02-01T00:39:06;22.63;;;2.97;;
65189;SDS011;51777;53.570;9.984;2023-02-01T00:41:32;20.70;;;3.35;;
65189;SDS011;51777;53.570;9.984;2023-02-01T00:43:58;30.48;;;3.92;;
65189;SDS011;51777;53.570;9.984;2023-02-01T00:46:23;16.80;;;3.45;;
65189;SDS011;51777;53.570;9.984;2023-02-01T00:48:49;12.90;;;2.90;;
65189;SDS011;51777;53.570;9.984;2023-02-01T00:51:16;14.32;;;3.05;;
65189;SDS011;51777;53.570;9.984;2023-02-01T00:53:44;15.23;;;3.60;;
65189;SDS011;51777;53.570;9.984;2023-02-01T00:56:10;15.10;;;3.10;;
65189;SDS011;51777;53.570;9.984;2023-02-01T00:58:36;31.25;;;4.30;;
65189;SDS011;51777;53.570;9.984;2023-02-01T01:01:06;20.15;;;4.35;;
65189;SDS011;51777;53.570;9.984;2023-02-01T01:03:35;15.52;;;3.90;;
65189;SDS011;51777;53.570;9.984;2023-02-01T01:06:04;13.77;;;2.72;;
65189;SDS011;51777;53.570;9.984;2023-02-01T01:08:34;12.60;;;2.78;;
65189;SDS011;51777;53.570;9.984;2023-02-01T01:11:19;20.10;;;3.15;;
65189;SDS011;51777;53.570;9.984;2023-02-01T01:13:51;24.30;;;3.30;;
65189;SDS011;51777;53.570;9.984;2023-02-01T01:16:17;25.38;;;3.42;;
65189;SDS011;51777;53.570;9.984;2023-02-01T01:18:43;26.80;;;3.63;;
65189;SDS011;51777;53.570;9.984;2023-02-01T01:21:13;37.83;;;4.75;;
65189;SDS011;51777;53.570;9.984;2023-02-01T01:23:40;40.30;;;5.32;;
65189;SDS011;51777;53.570;9.984;2023-02-01T01:26:06;16.00;;;2.78;;
65189;SDS011;51777;53.570;9.984;2023-02-01T01:28:32;23.67;;;3.97;;
65189;SDS011;51777;53.570;9.984;2023-02-01T01:30:58;27.20;;;4.05;;
65189;SDS011;51777;53.570;9.984;2023-02-01T01:33:23;20.77;;;3.30;;
65189;SDS011;51777;53.570;9.984;2023-02-01T01:35:48;10.43;;;2.38;;
65189;SDS011;51777;53.570;9.984;2023-02-01T01:38:14;15.88;;;3.05;;
65189;SDS011;51777;53.570;9.984;2023-02-01T01:40:39;36.13;;;4.55;;
65189;SDS011;51777;53.570;9.984;2023-02-01T01:43:11;22.92;;;4.03;;
65189;SDS011;51777;53.570;9.984;2023-02-01T01:45:39;27.50;;;3.83;;
65189;SDS011;51777;53.570;9.984;2023-02-01T01:48:13;25.80;;;4.28;;
65189;SDS011;51777;53.570;9.984;2023-02-01T01:51:02;20.38;;;3.17;;
65189;SDS011;51777;53.570;9.984;2023-02-01T01:53:33;14.57;;;3.22;;
65189;SDS011;51777;53.570;9.984;2023-02-01T01:56:11;18.98;;;3.65;;
65189;SDS011;51777;53.570;9.984;2023-02-01T01:58:37;34.33;;;4.00;;
65189;SDS011;51777;53.570;9.984;2023-02-01T02:01:03;28.20;;;4.22;;
65189;SDS011;51777;53.570;9.984;2023-02-01T02:03:34;34.80;;;4.18;;
65189;SDS011;51777;53.570;9.984;2023-02-01T02:06:03;26.30;;;4.78;;
65189;SDS011;51777;53.570;9.984;2023-02-01T02:08:35;16.48;;;3.30;;
65189;SDS011;51777;53.570;9.984;2023-02-01T02:11:00;18.00;;;3.28;;
65189;SDS011;51777;53.570;9.984;2023-02-01T02:13:29;23.55;;;4.20;;
65189;SDS011;51777;53.570;9.984;2023-02-01T02:26:56;39.78;;;4.88;;
65189;SDS011;51777;53.570;9.984;2023-02-01T02:29:39;28.30;;;3.97;;
65189;SDS011;51777;53.570;9.984;2023-02-01T02:35:16;25.48;;;4.55;;
65189;SDS011;51777;53.570;9.984;2023-02-01T02:37:53;19.48;;;2.78;;
65189;SDS011;51777;53.570;9.984;2023-02-01T02:40:32;23.75;;;3.50;;
65189;SDS011;51777;53.570;9.984;2023-02-01T02:43:22;20.08;;;3.17;;
65189;SDS011;51777;53.570;9.984;2023-02-01T02:49:12;21.70;;;3.72;;
65189;SDS011;51777;53.570;9.984;2023-02-01T02:51:46;12.50;;;3.05;;
65189;SDS011;51777;53.570;9.984;2023-02-01T02:54:37;16.52;;;4.18;;
65189;SDS011;51777;53.570;9.984;2023-02-01T03:00:12;26.17;;;3.95;;
65189;SDS011;51777;53.570;9.984;2023-02-01T03:03:00;22.95;;;3.22;;
65189;SDS011;51777;53.570;9.984;2023-02-01T03:05:45;15.75;;;3.60;;
65189;SDS011;51777;53.570;9.984;2023-02-01T03:08:14;13.60;;;3.35;;
65189;SDS011;51777;53.570;9.984;2023-02-01T03:13:13;24.98;;;3.72;;
65189;SDS011;51777;53.570;9.984;2023-02-01T03:18:16;18.05;;;3.08;;
65189;SDS011;51777;53.570;9.984;2023-02-01T03:21:06;19.60;;;3.20;;
65189;SDS011;51777;53.570;9.984;2023-02-01T03:23:36;18.65;;;3.72;;
65189;SDS011;51777;53.570;9.984;2023-02-01T03:26:06;18.35;;;3.38;;
65189;SDS011;51777;53.570;9.984;2023-02-01T03:28:34;10.18;;;1.98;;
65189;SDS011;51777;53.570;9.984;2023-02-01T03:31:05;23.02;;;4.45;;
65189;SDS011;51777;53.570;9.984;2023-02-01T03:33:37;9.38;;;1.92;;
65189;SDS011;51777;53.570;9.984;2023-02-01T03:36:12;14.48;;;2.15;;
65189;SDS011;51777;53.570;9.984;2023-02-01T03:46:44;8.50;;;2.00;;
65189;SDS011;51777;53.570;9.984;2023-02-01T03:49:38;11.50;;;2.13;;
65189;SDS011;51777;53.570;9.984;2023-02-01T03:52:09;6.78;;;1.77;;
65189;SDS011;51777;53.570;9.984;2023-02-01T03:54:42;17.55;;;2.63;;
65189;SDS011;51777;53.570;9.984;2023-02-01T03:57:10;7.30;;;1.40;;
65189;SDS011;51777;53.570;9.984;2023-02-01T03:59:42;14.80;;;2.33;;
65189;SDS011;51777;53.570;9.984;2023-02-01T04:02:09;14.63;;;2.03;;
65189;SDS011;51777;53.570;9.984;2023-02-01T04:04:35;9.85;;;2.53;;
65189;SDS011;51777;53.570;9.984;2023-02-01T04:07:01;3.10;;;1.35;;
65189;SDS011;51777;53.570;9.984;2023-02-01T04:09:27;22.77;;;3.15;;
65189;SDS011;51777;53.570;9.984;2023-02-01T04:11:52;10.43;;;1.63;;
65189;SDS011;51777;53.570;9.984;2023-02-01T04:14:18;21.17;;;3.25;;
65189;SDS011;51777;53.570;9.984;2023-02-01T04:16:43;15.32;;;2.47;;
65189;SDS011;51777;53.570;9.984;2023-02-01T04:19:09;7.13;;;2.13;;
65189;SDS011;51777;53.570;9.984;2023-02-01T04:21:35;6.93;;;1.75;;
65189;SDS011;51777;53.570;9.984;2023-02-01T04:24:00;10.63;;;1.88;;
65189;SDS011;51777;53.570;9.984;2023-02-01T04:26:26;8.10;;;1.88;;
65189;SDS011;51777;53.570;9.984;2023-02-01T04:28:51;19.13;;;2.50;;
65189;SDS011;51777;53.570;9.984;2023-02-01T04:31:17;17.55;;;2.35;;
65189;SDS011;51777;53.570;9.984;2023-02-01T04:33:53;9.75;;;2.38;;
65189;SDS011;51777;53.570;9.984;2023-02-01T04:36:22;14.55;;;3.28;;
65189;SDS011;51777;53.570;9.984;2023-02-01T04:38:51;6.72;;;1.70;;
65189;SDS011;51777;53.570;9.984;2023-02-01T04:41:17;14.30;;;2.83;;
65189;SDS011;51777;53.570;9.984;2023-02-01T04:43:45;11.73;;;3.67;;
65189;SDS011;51777;53.570;9.984;2023-02-01T04:46:11;10.55;;;2.20;;
65189;SDS011;51777;53.570;9.984;2023-02-01T04:48:36;12.77;;;2.00;;
65189;SDS011;51777;53.570;9.984;2023-02-01T04:51:02;10.57;;;2.28;;
65189;SDS011;51777;53.570;9.984;2023-02-01T04:53:27;6.20;;;1.55;;
65189;SDS011;51777;53.570;9.984;2023-02-01T04:55:54;9.13;;;2.30;;
65189;SDS011;51777;53.570;9.984;2023-02-01T04:58:19;5.40;;;1.55;;
65189;SDS011;51777;53.570;9.984;2023-02-01T05:00:44;5.78;;;1.52;;
65189;SDS011;51777;53.570;9.984;2023-02-01T05:03:10;10.23;;;2.00;;
65189;SDS011;51777;53.570;9.984;2023-02-01T05:05:35;7.65;;;1.42;;
65189;SDS011;51777;53.570;9.984;2023-02-01T05:08:01;4.10;;;1.10;;
65189;SDS011;51777;53.570;9.984;2023-02-01T05:10:26;5.68;;;1.52;;
65189;SDS011;51777;53.570;9.984;2023-02-01T05:12:52;3.13;;;0.85;;
65189;SDS011;51777;53.570;9.984;2023-02-01T05:15:36;1.20;;;0.70;;
65189;SDS011;51777;53.570;9.984;2023-02-01T05:18:01;3.60;;;0.80;;
65189;SDS011;51777;53.570;9.984;2023-02-01T05:20:27;3.80;;;1.00;;
65189;SDS011;51777;53.570;9.984;2023-02-01T05:22:52;2.78;;;0.80;;
65189;SDS011;51777;53.570;9.984;2023-02-01T05:25:17;1.38;;;0.60;;
65189;SDS011;51777;53.570;9.984;2023-02-01T05:27:43;3.45;;;0.65;;
65189;SDS011;51777;53.570;9.984;2023-02-01T05:30:09;4.65;;;0.70;;
65189;SDS011;51777;53.570;9.984;2023-02-01T05:32:35;2.20;;;1.00;;
65189;SDS011;51777;53.570;9.984;2023-02-01T05:35:01;1.48;;;0.60;;
65189;SDS011;51777;53.570;9.984;2023-02-01T05:37:27;2.47;;;0.70;;
65189;SDS011;51777;53.570;9.984;2023-02-01T05:39:52;2.72;;;0.80;;
65189;SDS011;51777;53.570;9.984;2023-02-01T05:42:18;0.75;;;0.57;;
65189;SDS011;51777;53.570;9.984;2023-02-01T05:44:43;4.93;;;0.70;;
65189;SDS011;51777;53.570;9.984;2023-02-01T05:47:10;1.10;;;0.68;;
65189;SDS011;51777;53.570;9.984;2023-02-01T05:49:37;2.45;;;0.80;;
65189;SDS011;51777;53.570;9.984;2023-02-01T05:52:02;2.58;;;0.73;;
65189;SDS011;51777;53.570;9.984;2023-02-01T05:54:28;2.40;;;0.93;;
65189;SDS011;51777;53.570;9.984;2023-02-01T05:56:54;0.95;;;0.57;;
65189;SDS011;51777;53.570;9.984;2023-02-01T05:59:19;0.60;;;0.60;;
65189;SDS011;51777;53.570;9.984;2023-02-01T06:01:44;2.15;;;0.70;;
65189;SDS011;51777;53.570;9.984;2023-02-01T06:04:10;1.80;;;0.68;;
65189;SDS011;51777;53.570;9.984;2023-02-01T06:06:39;1.00;;;0.50;;
65189;SDS011;51777;53.570;9.984;2023-02-01T06:09:04;2.15;;;0.85;;
65189;SDS011;51777;53.570;9.984;2023-02-01T06:11:30;1.30;;;0.60;;
65189;SDS011;51777;53.570;9.984;2023-02-01T06:13:56;0.63;;;0.50;;
65189;SDS011;51777;53.570;9.984;2023-02-01T06:16:21;2.97;;;0.77;;
65189;SDS011;51777;53.570;9.984;2023-02-01T06:18:47;1.33;;;0.63;;
65189;SDS011;51777;53.570;9.984;2023-02-01T06:21:13;1.15;;;0.45;;
65189;SDS011;51777;53.570;9.984;2023-02-01T06:23:48;2.30;;;0.80;;
65189;SDS011;51777;53.570;9.984;2023-02-01T06:26:14;5.22;;;0.82;;
65189;SDS011;51777;53.570;9.984;2023-02-01T06:28:39;2.17;;;1.00;;
65189;SDS011;51777;53.570;9.984;2023-02-01T06:31:05;3.78;;;1.23;;
65189;SDS011;51777;53.570;9.984;2023-02-01T06:33:33;5.13;;;0.90;;
65189;SDS011;51777;53.570;9.984;2023-02-01T06:36:00;7.68;;;1.00;;
65189;SDS011;51777;53.570;9.984;2023-02-01T06:38:28;2.70;;;0.82;;
65189;SDS011;51777;53.570;9.984;2023-02-01T06:40:56;2.47;;;0.75;;
65189;SDS011;51777;53.570;9.984;2023-02-01T06:43:23;11.07;;;1.58;;
65189;SDS011;51777;53.570;9.984;2023-02-01T06:45:50;2.17;;;0.88;;
65189;SDS011;51777;53.570;9.984;2023-02-01T06:48:16;5.32;;;1.35;;
65189;SDS011;51777;53.570;9.984;2023-02-01T06:50:42;12.13;;;2.45;;
65189;SDS011;51777;53.570;9.984;2023-02-01T06:53:07;6.30;;;1.88;;
65189;SDS011;51777;53.570;9.984;2023-02-01T06:55:33;4.28;;;1.05;;
65189;SDS011;51777;53.570;9.984;2023-02-01T06:57:58;6.55;;;1.40;;
65189;SDS011;51777;53.570;9.984;2023-02-01T07:00:24;9.65;;;1.88;;
65189;SDS011;51777;53.570;9.984;2023-02-01T07:02:50;3.85;;;1.38;;
65189;SDS011;51777;53.570;9.984;2023-02-01T07:05:16;7.68;;;1.52;;
65189;SDS011;51777;53.570;9.984;2023-02-01T07:07:41;11.60;;;1.98;;
65189;SDS011;51777;53.570;9.984;2023-02-01T07:10:07;3.90;;;1.45;;
65189;SDS011;51777;53.570;9.984;2023-02-01T07:12:33;6.68;;;1.55;;
65189;SDS011;51777;53.570;9.984;2023-02-01T07:14:59;11.82;;;2.25;;
65189;SDS011;51777;53.570;9.984;2023-02-01T07:17:26;11.23;;;1.60;;
65189;SDS011;51777;53.570;9.984;2023-02-01T07:19:53;12.38;;;2.38;;
65189;SDS011;51777;53.570;9.984;2023-02-01T07:22:24;9.30;;;2.38;;
65189;SDS011;51777;53.570;9.984;2023-02-01T07:24:50;15.45;;;2.63;;
65189;SDS011;51777;53.570;9.984;2023-02-01T07:27:15;15.82;;;3.03;;
65189;SDS011;51777;53.570;9.984;2023-02-01T07:29:42;22.20;;;3.03;;
65189;SDS011;51777;53.570;9.984;2023-02-01T07:32:32;17.80;;;2.78;;
65189;SDS011;51777;53.570;9.984;2023-02-01T07:34:58;18.02;;;3.50;;
65189;SDS011;51777;53.570;9.984;2023-02-01T07:37:30;26.80;;;3.25;;
65189;SDS011;51777;53.570;9.984;2023-02-01T07:40:01;35.15;;;3.20;;
65189;SDS011;51777;53.570;9.984;2023-02-01T07:42:31;24.20;;;3.10;;
65189;SDS011;51777;53.570;9.984;2023-02-01T07:45:18;17.77;;;2.95;;
65189;SDS011;51777;53.570;9.984;2023-02-01T07:48:04;17.40;;;2.55;;
65189;SDS011;51777;53.570;9.984;2023-02-01T07:50:31;29.63;;;3.42;;
65189;SDS011;51777;53.570;9.984;2023-02-01T07:53:00;20.25;;;3.38;;
65189;SDS011;51777;53.570;9.984;2023-02-01T07:55:25;14.45;;;2.38;;
65189;SDS011;51777;53.570;9.984;2023-02-01T07:57:51;25.35;;;3.35;;
65189;SDS011;51777;53.570;9.984;2023-02-01T08:00:19;38.85;;;4.25;;
65189;SDS011;51777;53.570;9.984;2023-02-01T08:03:08;28.48;;;4.22;;
65189;SDS011;51777;53.570;9.984;2023-02-01T08:05:33;25.60;;;4.22;;
65189;SDS011;51777;53.570;9.984;2023-02-01T08:07:59;21.10;;;3.50;;
65189;SDS011;51777;53.570;9.984;2023-02-01T08:10:25;19.52;;;4.43;;
65189;SDS011;51777;53.570;9.984;2023-02-01T08:12:50;22.52;;;3.13;;
65189;SDS011;51777;53.570;9.984;2023-02-01T08:15:17;22.42;;;3.28;;
65189;SDS011;51777;53.570;9.984;2023-02-01T08:18:02;27.25;;;3.95;;
65189;SDS011;51777;53.570;9.984;2023-02-01T08:20:27;23.58;;;4.03;;
65189;SDS011;51777;53.570;9.984;2023-02-01T08:22:53;27.13;;;4.10;;
65189;SDS011;51777;53.570;9.984;2023-02-01T08:25:20;22.63;;;3.50;;
65189;SDS011;51777;53.570;9.984;2023-02-01T08:27:46;22.42;;;3.40;;
65189;SDS011;51777;53.570;9.984;2023-02-01T08:30:21;28.25;;;3.67;;
65189;SDS011;51777;53.570;9.984;2023-02-01T08:32:49;14.38;;;2.40;;
65189;SDS011;51777;53.570;9.984;2023-02-01T08:35:14;29.25;;;4.28;;
65189;SDS011;51777;53.570;9.984;2023-02-01T08:37:39;37.50;;;4.78;;
65189;SDS011;51777;53.570;9.984;2023-02-01T08:40:08;17.90;;;2.45;;
65189;SDS011;51777;53.570;9.984;2023-02-01T08:42:34;21.85;;;3.20;;
65189;SDS011;51777;53.570;9.984;2023-02-01T08:45:22;11.27;;;2.20;;
65189;SDS011;51777;53.570;9.984;2023-02-01T08:47:50;19.55;;;2.45;;
65189;SDS011;51777;53.570;9.984;2023-02-01T08:50:17;19.48;;;2.80;;
65189;SDS011;51777;53.570;9.984;2023-02-01T08:52:43;12.80;;;2.08;;
65189;SDS011;51777;53.570;9.984;2023-02-01T08:55:09;14.90;;;2.78;;
65189;SDS011;51777;53.570;9.984;2023-02-01T08:57:35;19.42;;;2.88;;
65189;SDS011;51777;53.570;9.984;2023-02-01T09:00:01;20.95;;;3.35;;
65189;SDS011;51777;53.570;9.984;2023-02-01T09:02:28;21.85;;;3.85;;
65189;SDS011;51777;53.570;9.984;2023-02-01T09:04:55;37.70;;;8.07;;
65189;SDS011;51777;53.570;9.984;2023-02-01T09:07:21;27.90;;;7.47;;
65189;SDS011;51777;53.570;9.984;2023-02-01T09:09:46;43.45;;;6.72;;
65189;SDS011;51777;53.570;9.984;2023-02-01T09:12:12;16.15;;;3.53;;
65189;SDS011;51777;53.570;9.984;2023-02-01T09:14:37;32.90;;;4.75;;
65189;SDS011;51777;53.570;9.984;2023-02-01T09:17:03;22.23;;;3.45;;
65189;SDS011;51777;53.570;9.984;2023-02-01T09:19:30;14.95;;;2.47;;
65189;SDS011;51777;53.570;9.984;2023-02-01T09:21:56;18.38;;;3.15;;
65189;SDS011;51777;53.570;9.984;2023-02-01T09:24:21;29.67;;;4.25;;
65189;SDS011;51777;53.570;9.984;2023-02-01T09:26:47;20.83;;;3.30;;
65189;SDS011;51777;53.570;9.984;2023-02-01T09:29:13;12.88;;;2.97;;
65189;SDS011;51777;53.570;9.984;2023-02-01T09:31:39;28.42;;;3.80;;
65189;SDS011;51777;53.570;9.984;2023-02-01T09:34:05;21.05;;;3.30;;
65189;SDS011;51777;53.570;9.984;2023-02-01T09:36:31;17.20;;;3.03;;
65189;SDS011;51777;53.570;9.984;2023-02-01T09:38:57;18.38;;;3.15;;
65189;SDS011;51777;53.570;9.984;2023-02-01T09:47:21;29.38;;;4.35;;
65189;SDS011;51777;53.570;9.984;2023-02-01T09:49:51;19.33;;;3.72;;
65189;SDS011;51777;53.570;9.984;2023-02-01T09:52:26;20.52;;;3.58;;
65189;SDS011;51777;53.570;9.984;2023-02-01T09:55:01;22.15;;;2.67;;
65189;SDS011;51777;53.570;9.984;2023-02-01T09:57:52;23.23;;;3.55;;
65189;SDS011;51777;53.570;9.984;2023-02-01T10:00:24;14.93;;;2.70;;
65189;SDS011;51777;53.570;9.984;2023-02-01T10:02:54;19.55;;;3.08;;
65189;SDS011;51777;53.570;9.984;2023-02-01T10:06:05;13.82;;;2.90;;
65189;SDS011;51777;53.570;9.984;2023-02-01T10:11:21;17.50;;;4.50;;
65189;SDS011;51777;53.570;9.984;2023-02-01T10:28:50;23.77;;;3.15;;
65189;SDS011;51777;53.570;9.984;2023-02-01T10:31:16;9.95;;;1.83;;
65189;SDS011;51777;53.570;9.984;2023-02-01T10:33:50;13.23;;;2.30;;
65189;SDS011;51777;53.570;9.984;2023-02-01T10:39:08;17.00;;;3.58;;
65189;SDS011;51777;53.570;9.984;2023-02-01T10:41:38;15.02;;;3.25;;
65189;SDS011;51777;53.570;9.984;2023-02-01T10:44:13;17.77;;;2.83;;
65189;SDS011;51777;53.570;9.984;2023-02-01T10:49:29;16.95;;;2.53;;
65189;SDS011;51777;53.570;9.984;2023-02-01T10:52:13;24.92;;;3.30;;
65189;SDS011;51777;53.570;9.984;2023-02-01T10:54:42;27.85;;;3.13;;
65189;SDS011;51777;53.570;9.984;2023-02-01T10:57:08;16.13;;;2.25;;
65189;SDS011;51777;53.570;9.984;2023-02-01T10:59:35;31.67;;;3.90;;
65189;SDS011;51777;53.570;9.984;2023-02-01T11:02:18;13.07;;;2.13;;
65189;SDS011;51777;53.570;9.984;2023-02-01T11:05:09;26.38;;;3.63;;
65189;SDS011;51777;53.570;9.984;2023-02-01T11:07:37;20.25;;;2.97;;
65189;SDS011;51777;53.570;9.984;2023-02-01T11:10:04;7.68;;;2.47;;
65189;SDS011;51777;53.570;9.984;2023-02-01T11:12:31;19.35;;;3.15;;
65189;SDS011;51777;53.570;9.984;2023-02-01T11:15:15;15.60;;;2.65;;
65189;SDS011;51777;53.570;9.984;2023-02-01T11:17:46;7.50;;;2.53;;
65189;SDS011;51777;53.570;9.984;2023-02-01T11:20:14;16.30;;;2.70;;
65189;SDS011;51777;53.570;9.984;2023-02-01T11:22:48;15.27;;;2.20;;
65189;SDS011;51777;53.570;9.984;2023-02-01T11:25:21;20.52;;;2.83;;
65189;SDS011;51777;53.570;9.984;2023-02-01T11:27:48;9.85;;;2.47;;
65189;SDS011;51777;53.570;9.984;2023-02-01T11:30:16;21.10;;;3.08;;
65189;SDS011;51777;53.570;9.984;2023-02-01T11:32:46;16.55;;;2.42;;
65189;SDS011;51777;53.570;9.984;2023-02-01T11:37:48;26.05;;;3.47;;
65189;SDS011;51777;53.570;9.984;2023-02-01T11:40:34;16.83;;;3.83;;
65189;SDS011;51777;53.570;9.984;2023-02-01T11:43:07;17.63;;;2.50;;
65189;SDS011;51777;53.570;9.984;2023-02-01T11:45:55;16.00;;;2.33;;
65189;SDS011;51777;53.570;9.984;2023-02-01T11:48:30;7.28;;;2.33;;
65189;SDS011;51777;53.570;9.984;2023-02-01T11:59:46;7.40;;;2.28;;
65189;SDS011;51777;53.570;9.984;2023-02-01T12:10:38;10.68;;;1.92;;
65189;SDS011;51777;53.570;9.984;2023-02-01T12:16:14;11.10;;;1.77;;
65189;SDS011;51777;53.570;9.984;2023-02-01T12:19:06;14.77;;;2.33;;
65189;SDS011;51777;53.570;9.984;2023-02-01T12:27:11;12.65;;;2.55;;
65189;SDS011;51777;53.570;9.984;2023-02-01T12:33:17;10.30;;;1.80;;
65189;SDS011;51777;53.570;9.984;2023-02-01T12:36:12;5.72;;;1.38;;
65189;SDS011;51777;53.570;9.984;2023-02-01T12:41:47;2.10;;;0.93;;
65189;SDS011;51777;53.570;9.984;2023-02-01T12:44:26;4.30;;;1.30;;
65189;SDS011;51777;53.570;9.984;2023-02-01T12:47:09;6.25;;;1.10;;
65189;SDS011;51777;53.570;9.984;2023-02-01T12:50:03;2.53;;;0.85;;
65189;SDS011;51777;53.570;9.984;2023-02-01T12:55:19;2.85;;;1.08;;
65189;SDS011;51777;53.570;9.984;2023-02-01T12:57:50;2.53;;;0.90;;
65189;SDS011;51777;53.570;9.984;2023-02-01T13:00:29;5.07;;;0.90;;
65189;SDS011;51777;53.570;9.984;2023-02-01T13:06:06;2.15;;;0.80;;
65189;SDS011;51777;53.570;9.984;2023-02-01T13:11:17;0.98;;;0.75;;
65189;SDS011;51777;53.570;9.984;2023-02-01T13:16:51;1.13;;;0.75;;
65189;SDS011;51777;53.570;9.984;2023-02-01T13:21:57;2.08;;;1.00;;
65189;SDS011;51777;53.570;9.984;2023-02-01T13:24:31;0.60;;;0.60;;
65189;SDS011;51777;53.570;9.984;2023-02-01T13:27:01;2.15;;;0.82;;
65189;SDS011;51777;53.570;9.984;2023-02-01T13:29:27;0.95;;;0.52;;
65189;SDS011;51777;53.570;9.984;2023-02-01T13:41:02;2.50;;;0.63;;
65189;SDS011;51777;53.570;9.984;2023-02-01T13:43:18;1.98;;;0.60;;
65189;SDS011;51777;53.570;9.984;2023-02-01T13:45:49;1.13;;;0.60;;
65189;SDS011;51777;53.570;9.984;2023-02-01T13:51:06;4.72;;;0.80;;
65189;SDS011;51777;53.570;9.984;2023-02-01T13:53:35;0.85;;;0.70;;
65189;SDS011;51777;53.570;9.984;2023-02-01T13:56:12;3.55;;;0.82;;
65189;SDS011;51777;53.570;9.984;2023-02-01T13:58:42;2.67;;;0.85;;
65189;SDS011;51777;53.570;9.984;2023-02-01T14:03:56;3.58;;;0.90;;
65189;SDS011;51777;53.570;9.984;2023-02-01T14:12:39;3.80;;;0.90;;
65189;SDS011;51777;53.570;9.984;2023-02-01T14:15:23;7.78;;;1.15;;
65189;SDS011;51777;53.570;9.984;2023-02-01T14:17:55;4.30;;;1.10;;
65189;SDS011;51777;53.570;9.984;2023-02-01T14:20:40;3.00;;;0.93;;
65189;SDS011;51777;53.570;9.984;2023-02-01T14:23:11;9.00;;;1.77;;
65189;SDS011;51777;53.570;9.984;2023-02-01T14:25:40;5.72;;;1.60;;
65189;SDS011;51777;53.570;9.984;2023-02-01T14:28:10;8.68;;;1.65;;
65189;SDS011;51777;53.570;9.984;2023-02-01T14:30:51;10.75;;;1.48;;
65189;SDS011;51777;53.570;9.984;2023-02-01T14:33:23;6.57;;;1.75;;
65189;SDS011;51777;53.570;9.984;2023-02-01T14:35:56;6.68;;;1.38;;
65189;SDS011;51777;53.570;9.984;2023-02-01T14:38:30;8.90;;;1.50;;
65189;SDS011;51777;53.570;9.984;2023-02-01T14:41:10;9.13;;;1.65;;
65189;SDS011;51777;53.570;9.984;2023-02-01T14:44:12;7.75;;;1.60;;
65189;SDS011;51777;53.570;9.984;2023-02-01T14:49:29;11.40;;;1.60;;
65189;SDS011;51777;53.570;9.984;2023-02-01T14:51:57;8.70;;;2.10;;
65189;SDS011;51777;53.570;9.984;2023-02-01T14:54:23;8.73;;;1.73;;
65189;SDS011;51777;53.570;9.984;2023-02-01T14:56:49;13.38;;;1.67;;
65189;SDS011;51777;53.570;9.984;2023-02-01T14:59:16;12.38;;;2.20;;
65189;SDS011;51777;53.570;9.984;2023-02-01T15:01:50;9.18;;;1.65;;
65189;SDS011;51777;53.570;9.984;2023-02-01T15:04:19;13.52;;;2.05;;
65189;SDS011;51777;53.570;9.984;2023-02-01T15:06:57;10.63;;;2.13;;
65189;SDS011;51777;53.570;9.984;2023-02-01T15:14:38;9.38;;;1.95;;
65189;SDS011;51777;53.570;9.984;2023-02-01T15:19:59;1.90;;;0.73;;
65189;SDS011;51777;53.570;9.984;2023-02-01T15:22:52;9.60;;;1.42;;
65189;SDS011;51777;53.570;9.984;2023-02-01T15:25:19;11.32;;;2.55;;
65189;SDS011;51777;53.570;9.984;2023-02-01T15:27:46;9.20;;;1.65;;
65189;SDS011;51777;53.570;9.984;2023-02-01T15:30:19;13.80;;;1.88;;
65189;SDS011;51777;53.570;9.984;2023-02-01T15:32:47;7.18;;;1.50;;
65189;SDS011;51777;53.570;9.984;2023-02-01T15:40:53;10.33;;;2.00;;
65189;SDS011;51777;53.570;9.984;2023-02-01T15:43:43;12.90;;;2.65;;
65189;SDS011;51777;53.570;9.984;2023-02-01T15:46:17;18.92;;;2.65;;
65189;SDS011;51777;53.570;9.984;2023-02-01T15:48:53;6.03;;;1.50;;
65189;SDS011;51777;53.570;9.984;2023-02-01T15:51:23;10.63;;;2.55;;
65189;SDS011;51777;53.570;9.984;2023-02-01T15:53:55;11.52;;;2.15;;
65189;SDS011;51777;53.570;9.984;2023-02-01T15:56:24;13.02;;;2.85;;
65189;SDS011;51777;53.570;9.984;2023-02-01T15:58:59;10.90;;;2.15;;
65189;SDS011;51777;53.570;9.984;2023-02-01T16:01:27;17.83;;;2.40;;
65189;SDS011;51777;53.570;9.984;2023-02-01T16:04:16;11.13;;;2.03;;
65189;SDS011;51777;53.570;9.984;2023-02-01T16:07:01;3.00;;;1.30;;
65189;SDS011;51777;53.570;9.984;2023-02-01T16:09:37;12.23;;;1.85;;
65189;SDS011;51777;53.570;9.984;2023-02-01T16:12:17;20.25;;;2.60;;
65189;SDS011;51777;53.570;9.984;2023-02-01T16:15:02;18.83;;;2.75;;
65189;SDS011;51777;53.570;9.984;2023-02-01T16:17:28;13.48;;;1.95;;
65189;SDS011;51777;53.570;9.984;2023-02-01T16:19:54;9.90;;;2.03;;
65189;SDS011;51777;53.570;9.984;2023-02-01T16:22:22;7.95;;;1.90;;
65189;SDS011;51777;53.570;9.984;2023-02-01T16:24:48;9.68;;;2.42;;
65189;SDS011;51777;53.570;9.984;2023-02-01T16:27:14;16.67;;;2.10;;
65189;SDS011;51777;53.570;9.984;2023-02-01T16:29:39;10.20;;;2.45;;
65189;SDS011;51777;53.570;9.984;2023-02-01T16:32:04;20.70;;;3.03;;
65189;SDS011;51777;53.570;9.984;2023-02-01T16:34:30;9.70;;;1.98;;
65189;SDS011;51777;53.570;9.984;2023-02-01T16:36:56;15.80;;;2.85;;
65189;SDS011;51777;53.570;9.984;2023-02-01T16:39:22;5.25;;;1.88;;
65189;SDS011;51777;53.570;9.984;2023-02-01T16:41:49;29.50;;;4.40;;
65189;SDS011;51777;53.570;9.984;2023-02-01T16:44:15;26.67;;;3.45;;
65189;SDS011;51777;53.570;9.984;2023-02-01T16:46:41;25.73;;;3.92;;
65189;SDS011;51777;53.570;9.984;2023-02-01T16:49:16;19.42;;;2.85;;
65189;SDS011;51777;53.570;9.984;2023-02-01T16:51:44;20.70;;;3.75;;
65189;SDS011;51777;53.570;9.984;2023-02-01T16:54:10;12.80;;;2.40;;
65189;SDS011;51777;53.570;9.984;2023-02-01T16:56:36;13.80;;;2.10;;
65189;SDS011;51777;53.570;9.984;2023-02-01T16:59:05;17.95;;;2.95;;
65189;SDS011;51777;53.570;9.984;2023-02-01T17:01:30;18.83;;;3.30;;
65189;SDS011;51777;53.570;9.984;2023-02-01T17:03:58;23.15;;;3.88;;
65189;SDS011;51777;53.570;9.984;2023-02-01T17:06:24;19.30;;;3.47;;
65189;SDS011;51777;53.570;9.984;2023-02-01T17:08:53;26.30;;;3.67;;
65189;SDS011;51777;53.570;9.984;2023-02-01T17:11:20;34.17;;;4.78;;
65189;SDS011;51777;53.570;9.984;2023-02-01T17:13:46;36.70;;;4.72;;
65189;SDS011;51777;53.570;9.984;2023-02-01T17:18:43;25.52;;;3.90;;
65189;SDS011;51777;53.570;9.984;2023-02-01T17:21:17;35.45;;;4.15;;
65189;SDS011;51777;53.570;9.984;2023-02-01T17:23:42;16.88;;;2.97;;
65189;SDS011;51777;53.570;9.984;2023-02-01T17:26:09;28.27;;;3.42;;